createdAt,value
2023-04-11T00:00:21.590Z,2.2
2023-04-11T00:01:22.209Z,1.8
2023-04-11T00:02:22.951Z,1.5
2023-04-11T00:03:23.627Z,1.9
2023-04-11T00:04:24.307Z,1.9
2023-04-11T00:05:24.880Z,2.1
2023-04-11T00:06:25.467Z,1.6
2023-04-11T00:07:26.064Z,1.5
2023-04-11T00:08:26.656Z,1.7
2023-04-11T00:09:27.246Z,1.7
2023-04-11T00:10:27.848Z,1.9
2023-04-11T00:11:28.431Z,1.6
2023-04-11T00:12:29.041Z,1.7
2023-04-11T00:13:29.626Z,2.6
2023-04-11T00:14:30.218Z,1.7
2023-04-11T00:15:30.811Z,1.8
2023-04-11T00:16:31.503Z,1.5
2023-04-11T00:17:32.098Z,1.8
2023-04-11T00:18:32.695Z,1.6
2023-04-11T00:19:33.289Z,1.5
2023-04-11T00:20:33.894Z,1.6
2023-04-11T00:21:34.475Z,1.6
2023-04-11T00:22:35.068Z,1.4
2023-04-11T00:23:35.663Z,1.8
2023-04-11T00:24:36.262Z,2.0
2023-04-11T00:25:36.856Z,1.5
2023-04-11T00:26:37.454Z,1.7
2023-04-11T00:27:38.040Z,1.3
2023-04-11T00:28:38.636Z,1.2
2023-04-11T00:29:39.249Z,1.6
2023-04-11T00:30:39.826Z,1.4
2023-04-11T00:31:40.417Z,1.2
2023-04-11T00:32:41.068Z,1.4
2023-04-11T00:33:41.620Z,1.5
2023-04-11T00:34:42.213Z,1.3
2023-04-11T00:35:42.809Z,1.3
2023-04-11T00:36:43.569Z,1.2
2023-04-11T00:37:44.029Z,1.3
2023-04-11T00:38:44.674Z,1.4
2023-04-11T00:39:45.350Z,1.2
2023-04-11T00:40:45.944Z,1.4
2023-04-11T00:41:46.561Z,1.3
2023-04-11T00:42:47.181Z,1.5
2023-04-11T00:43:47.782Z,1.2
2023-04-11T00:44:48.385Z,1.1
2023-04-11T00:45:49.055Z,1.2
2023-04-11T00:46:49.609Z,1.0
2023-04-11T00:47:50.267Z,1.0
2023-04-11T00:48:50.835Z,1.1
2023-04-11T00:49:51.424Z,1.0
2023-04-11T00:50:52.016Z,1.0
2023-04-11T00:51:52.608Z,1.1
2023-04-11T00:52:53.201Z,0.8
2023-04-11T00:53:53.821Z,1.4
2023-04-11T00:54:54.425Z,0.8
2023-04-11T00:55:55.018Z,0.9
2023-04-11T00:56:55.615Z,1.3
2023-04-11T00:57:56.206Z,1.0
2023-04-11T00:58:56.998Z,1.1
2023-04-11T00:59:57.684Z,1.1
2023-04-11T01:00:58.319Z,1.1
2023-04-11T01:01:59.014Z,1.3
2023-04-11T01:02:59.833Z,0.8
2023-04-11T01:04:00.833Z,1.0
2023-04-11T01:05:01.622Z,1.5
2023-04-11T01:06:02.208Z,0.8
2023-04-11T01:07:02.801Z,0.9
2023-04-11T01:08:03.414Z,1.0
2023-04-11T01:09:04.008Z,1.1
2023-04-11T01:10:04.597Z,1.1
2023-04-11T01:11:05.202Z,0.8
2023-04-11T01:12:05.784Z,0.8
2023-04-11T01:13:06.397Z,0.6
2023-04-11T01:14:07.017Z,0.9
2023-04-11T01:15:07.610Z,1.6
2023-04-11T01:16:08.239Z,0.9
2023-04-11T01:17:08.835Z,0.9
2023-04-11T01:18:09.511Z,2.5
2023-04-11T01:19:10.142Z,0.9
2023-04-11T01:20:10.739Z,0.8
2023-04-11T01:21:11.336Z,1.0
2023-04-11T01:22:11.951Z,0.7
2023-04-11T01:23:12.542Z,0.8
2023-04-11T01:24:13.161Z,0.9
2023-04-11T01:25:13.768Z,0.9
2023-04-11T01:26:14.364Z,1.0
2023-04-11T01:27:14.960Z,0.9
2023-04-11T01:28:15.554Z,1.1
2023-04-11T01:29:16.167Z,1.1
2023-04-11T01:30:16.764Z,0.9
2023-04-11T01:31:17.480Z,1.1
2023-04-11T01:32:18.124Z,0.9
2023-04-11T01:33:18.690Z,1.0
2023-04-11T01:34:19.287Z,0.9
2023-04-11T01:35:19.926Z,1.2
2023-04-11T01:36:20.515Z,1.0
2023-04-11T01:37:21.112Z,0.8
2023-04-11T01:38:21.704Z,0.8
2023-04-11T01:39:22.314Z,1.0
2023-04-11T01:40:22.893Z,0.8
2023-04-11T01:41:23.497Z,1.1
2023-04-11T01:42:24.093Z,0.8
2023-04-11T01:43:24.696Z,0.7
2023-04-11T01:44:25.287Z,1.2
2023-04-11T01:45:25.890Z,1.2
2023-04-11T01:46:26.482Z,0.9
2023-04-11T01:47:27.111Z,1.1
2023-04-11T01:48:27.754Z,0.9
2023-04-11T01:49:28.356Z,0.9
2023-04-11T01:50:28.950Z,1.2
2023-04-11T01:51:29.552Z,0.7
2023-04-11T01:52:30.139Z,0.8
2023-04-11T01:53:30.733Z,0.9
2023-04-11T01:54:31.327Z,0.9
2023-04-11T01:55:31.937Z,0.9
2023-04-11T01:56:32.532Z,1.2
2023-04-11T01:57:33.154Z,0.9
2023-04-11T01:58:33.738Z,1.2
2023-04-11T01:59:34.360Z,0.9
2023-04-11T02:00:34.947Z,1.1
2023-04-11T02:01:35.594Z,1.0
2023-04-11T02:02:36.289Z,1.0
2023-04-11T02:03:37.063Z,5.0
2023-04-11T02:04:37.699Z,1.1
2023-04-11T02:05:38.292Z,1.7
2023-04-11T02:06:38.883Z,1.2
2023-04-11T02:07:39.501Z,1.1
2023-04-11T02:08:40.092Z,1.2
2023-04-11T02:09:40.686Z,1.2
2023-04-11T02:10:41.282Z,0.9
2023-04-11T02:11:41.881Z,1.2
2023-04-11T02:12:42.470Z,0.8
2023-04-11T02:13:43.065Z,1.1
2023-04-11T02:14:43.665Z,1.0
2023-04-11T02:15:44.264Z,1.2
2023-04-11T02:16:44.842Z,0.9
2023-04-11T02:17:45.695Z,1.0
2023-04-11T02:18:46.329Z,0.8
2023-04-11T02:19:46.916Z,1.0
2023-04-11T02:20:47.512Z,1.1
2023-04-11T02:21:48.106Z,1.2
2023-04-11T02:22:48.704Z,1.2
2023-04-11T02:23:49.312Z,1.2
2023-04-11T02:24:49.907Z,1.3
2023-04-11T02:25:50.502Z,1.3
2023-04-11T02:26:51.096Z,0.9
2023-04-11T02:27:51.690Z,1.0
2023-04-11T02:28:52.324Z,1.7
2023-04-11T02:29:52.874Z,1.4
2023-04-11T02:30:53.555Z,1.5
2023-04-11T02:31:54.233Z,1.3
2023-04-11T02:32:54.808Z,1.0
2023-04-11T02:33:55.452Z,1.4
2023-04-11T02:34:56.063Z,1.3
2023-04-11T02:35:56.723Z,1.3
2023-04-11T02:36:57.279Z,1.2
2023-04-11T02:37:57.889Z,1.6
2023-04-11T02:38:58.482Z,1.3
2023-04-11T02:39:59.074Z,1.8
2023-04-11T02:40:59.672Z,1.6
2023-04-11T02:42:00.261Z,1.7
2023-04-11T02:43:00.854Z,1.6
2023-04-11T02:44:01.511Z,1.8
2023-04-11T02:45:02.145Z,1.5
2023-04-11T02:46:12.606Z,1.8
2023-04-11T02:47:04.407Z,1.8
2023-04-11T02:48:05.089Z,1.6
2023-04-11T02:49:05.645Z,1.6
2023-04-11T02:50:06.243Z,1.6
2023-04-11T02:51:06.828Z,1.6
2023-04-11T02:52:07.420Z,4.1
2023-04-11T02:53:08.015Z,1.9
2023-04-11T02:54:08.606Z,1.9
2023-04-11T02:55:09.200Z,4.0
2023-04-11T02:56:09.799Z,2.0
2023-04-11T02:57:10.436Z,2.1
2023-04-11T02:58:11.034Z,1.7
2023-04-11T02:59:11.620Z,1.9
2023-04-11T03:00:12.219Z,1.7
2023-04-11T03:01:12.894Z,2.5
2023-04-11T03:02:13.547Z,2.5
2023-04-11T03:03:14.138Z,2.1
2023-04-11T03:04:14.848Z,2.5
2023-04-11T03:05:15.417Z,2.4
2023-04-11T03:06:16.030Z,2.4
2023-04-11T03:07:16.620Z,2.9
2023-04-11T03:08:17.224Z,2.6
2023-04-11T03:09:17.813Z,2.4
2023-04-11T03:10:18.444Z,2.4
2023-04-11T03:11:19.035Z,2.3
2023-04-11T03:12:19.630Z,2.7
2023-04-11T03:13:20.249Z,2.6
2023-04-11T03:14:20.846Z,2.6
2023-04-11T03:15:21.457Z,2.6
2023-04-11T03:16:22.095Z,2.7
2023-04-11T03:17:22.643Z,3.0
2023-04-11T03:18:23.232Z,2.8
2023-04-11T03:19:23.828Z,2.5
2023-04-11T03:20:24.436Z,3.2
2023-04-11T03:21:25.032Z,2.9
2023-04-11T03:22:25.628Z,3.0
2023-04-11T03:23:26.222Z,2.8
2023-04-11T03:24:26.822Z,2.9
2023-04-11T03:25:27.428Z,3.2
2023-04-11T03:26:28.022Z,3.2
2023-04-11T03:27:28.618Z,3.0
2023-04-11T03:28:29.215Z,2.6
2023-04-11T03:29:29.846Z,2.8
2023-04-11T03:30:30.451Z,3.0
2023-04-11T03:31:31.071Z,3.2
2023-04-11T03:32:31.674Z,2.9
2023-04-11T03:33:32.238Z,3.0
2023-04-11T03:34:32.844Z,3.4
2023-04-11T03:35:33.429Z,3.0
2023-04-11T03:36:34.037Z,3.2
2023-04-11T03:37:34.635Z,3.3
2023-04-11T03:38:35.221Z,3.1
2023-04-11T03:39:35.812Z,3.0
2023-04-11T03:40:36.406Z,2.6
2023-04-11T03:41:37.000Z,2.9
2023-04-11T03:42:37.595Z,2.8
2023-04-11T03:43:38.185Z,2.7
2023-04-11T03:44:38.790Z,3.1
2023-04-11T03:45:39.372Z,3.0
2023-04-11T03:46:39.981Z,3.1
2023-04-11T03:47:40.618Z,3.4
2023-04-11T03:48:41.200Z,3.4
2023-04-11T03:49:41.781Z,3.2
2023-04-11T03:50:42.376Z,3.1
2023-04-11T03:51:42.971Z,3.0
2023-04-11T03:52:43.564Z,3.5
2023-04-11T03:53:44.156Z,2.9
2023-04-11T03:54:47.084Z,3.0
2023-04-11T03:55:46.335Z,2.9
2023-04-11T03:56:46.944Z,3.6
2023-04-11T03:57:47.518Z,3.2
2023-04-11T03:58:48.114Z,3.2
2023-04-11T03:59:48.723Z,3.0
2023-04-11T04:00:49.295Z,3.0
2023-04-11T04:01:49.940Z,3.3
2023-04-11T04:02:50.659Z,3.5
2023-04-11T04:03:51.597Z,3.3
2023-04-11T04:04:52.480Z,3.3
2023-04-11T04:05:52.986Z,3.4
2023-04-11T04:06:53.575Z,3.3
2023-04-11T04:07:55.784Z,3.1
2023-04-11T04:08:55.755Z,3.3
2023-04-11T04:09:56.346Z,3.1
2023-04-11T04:10:56.943Z,3.1
2023-04-11T04:11:57.572Z,3.6
2023-04-11T04:12:58.133Z,3.4
2023-04-11T04:13:58.883Z,3.9
2023-04-11T04:14:59.362Z,2.9
2023-04-11T04:16:01.878Z,3.1
2023-04-11T04:17:01.534Z,3.6
2023-04-11T04:18:02.215Z,3.4
2023-04-11T04:19:02.784Z,2.8
2023-04-11T04:20:03.412Z,3.4
2023-04-11T04:21:03.973Z,3.3
2023-04-11T04:22:04.570Z,3.4
2023-04-11T04:23:05.183Z,3.1
2023-04-11T04:24:05.777Z,3.7
2023-04-11T04:25:06.398Z,3.4
2023-04-11T04:26:06.990Z,3.3
2023-04-11T04:27:07.593Z,3.8
2023-04-11T04:28:08.192Z,3.0
2023-04-11T04:29:08.784Z,3.6
2023-04-11T04:30:09.740Z,3.8
2023-04-11T04:31:10.333Z,3.3
2023-04-11T04:32:11.268Z,3.6
2023-04-11T04:33:11.923Z,3.6
2023-04-11T04:34:12.514Z,3.4
2023-04-11T04:35:13.109Z,3.4
2023-04-11T04:36:13.716Z,3.6
2023-04-11T04:37:14.321Z,3.4
2023-04-11T04:38:14.920Z,3.8
2023-04-11T04:39:15.515Z,4.0
2023-04-11T04:40:16.142Z,3.6
2023-04-11T04:41:16.735Z,3.3
2023-04-11T04:42:17.325Z,3.9
2023-04-11T04:43:17.923Z,3.5
2023-04-11T04:44:18.519Z,4.4
2023-04-11T04:45:19.117Z,3.7
2023-04-11T04:46:19.757Z,3.7
2023-04-11T04:47:20.329Z,3.6
2023-04-11T04:48:20.928Z,3.8
2023-04-11T04:49:21.527Z,3.7
2023-04-11T04:50:22.142Z,3.6
2023-04-11T04:51:22.753Z,4.1
2023-04-11T04:52:23.352Z,4.4
2023-04-11T04:53:23.951Z,3.9
2023-04-11T04:54:24.549Z,4.0
2023-04-11T04:55:25.145Z,5.8
2023-04-11T04:56:25.744Z,4.6
2023-04-11T04:57:26.342Z,4.4
2023-04-11T04:58:26.946Z,4.4
2023-04-11T04:59:27.537Z,4.5
2023-04-11T05:00:28.142Z,4.4
2023-04-11T05:01:28.743Z,4.6
2023-04-11T05:02:29.462Z,3.9
2023-04-11T05:03:30.281Z,4.3
2023-04-11T05:04:30.962Z,4.6
2023-04-11T05:05:31.574Z,5.2
2023-04-11T05:06:32.165Z,4.4
2023-04-11T05:07:32.771Z,5.0
2023-04-11T05:08:33.356Z,4.5
2023-04-11T05:09:33.950Z,4.1
2023-04-11T05:10:34.553Z,5.1
2023-04-11T05:11:35.153Z,4.6
2023-04-11T05:12:35.750Z,4.3
2023-04-11T05:13:36.354Z,4.2
2023-04-11T05:14:36.949Z,4.7
2023-04-11T05:15:37.544Z,5.0
2023-04-11T05:16:38.198Z,4.8
2023-04-11T05:17:38.803Z,6.7
2023-04-11T05:18:39.348Z,5.0
2023-04-11T05:19:39.987Z,4.7
2023-04-11T05:20:40.568Z,5.0
2023-04-11T05:21:41.190Z,4.8
2023-04-11T05:22:41.783Z,4.7
2023-04-11T05:23:42.381Z,5.4
2023-04-11T05:24:43.000Z,5.4
2023-04-11T05:25:43.597Z,4.6
2023-04-11T05:26:44.262Z,5.4
2023-04-11T05:27:44.818Z,4.8
2023-04-11T05:28:45.427Z,5.3
2023-04-11T05:29:46.050Z,6.0
2023-04-11T05:30:46.709Z,5.5
2023-04-11T05:31:47.262Z,4.5
2023-04-11T05:32:47.912Z,4.6
2023-04-11T05:33:48.491Z,5.2
2023-04-11T05:34:49.084Z,5.2
2023-04-11T05:35:49.733Z,5.4
2023-04-11T05:36:50.321Z,5.1
2023-04-11T05:37:50.915Z,5.1
2023-04-11T05:38:51.531Z,4.4
2023-04-11T05:39:52.132Z,5.0
2023-04-11T05:40:52.758Z,5.6
2023-04-11T05:41:53.330Z,4.9
2023-04-11T05:42:53.933Z,5.2
2023-04-11T05:43:54.810Z,5.6
2023-04-11T05:44:55.557Z,4.8
2023-04-11T05:45:56.174Z,5.4
2023-04-11T05:46:56.741Z,4.1
2023-04-11T05:47:57.368Z,2.8
2023-04-11T05:48:57.981Z,2.7
2023-04-11T05:49:58.550Z,2.3
2023-04-11T05:50:59.164Z,1.5
2023-04-11T05:51:59.760Z,1.4
2023-04-11T05:53:00.359Z,1.5
2023-04-11T05:54:00.958Z,1.2
2023-04-11T05:55:01.582Z,1.4
2023-04-11T05:56:02.196Z,1.4
2023-04-11T05:57:02.813Z,2.0
2023-04-11T05:58:03.462Z,2.5
2023-04-11T05:59:04.010Z,2.2
2023-04-11T06:00:04.606Z,2.0
2023-04-11T06:01:05.224Z,2.2
2023-04-11T06:02:05.909Z,1.8
2023-04-11T06:03:06.531Z,1.6
2023-04-11T06:04:07.216Z,1.7
2023-04-11T06:05:07.776Z,1.3
2023-04-11T06:06:08.321Z,1.2
2023-04-11T06:07:08.942Z,1.7
2023-04-11T06:08:09.537Z,1.2
2023-04-11T06:09:10.134Z,1.5
2023-04-11T06:10:10.751Z,1.2
2023-04-11T06:11:11.352Z,1.4
2023-04-11T06:12:11.950Z,1.0
2023-04-11T06:13:12.573Z,1.3
2023-04-11T06:14:13.161Z,1.7
2023-04-11T06:15:13.804Z,1.0
2023-04-11T06:16:14.405Z,1.1
2023-04-11T06:17:14.993Z,1.3
2023-04-11T06:18:15.594Z,1.4
2023-04-11T06:19:16.195Z,1.6
2023-04-11T06:20:16.799Z,1.4
2023-04-11T06:21:17.391Z,1.5
2023-04-11T06:22:17.986Z,1.7
2023-04-11T06:23:18.619Z,2.0
2023-04-11T06:24:19.215Z,1.6
2023-04-11T06:25:19.819Z,1.6
2023-04-11T06:26:20.441Z,1.6
2023-04-11T06:27:21.044Z,1.9
2023-04-11T06:28:21.658Z,1.6
2023-04-11T06:29:22.260Z,1.8
2023-04-11T06:30:22.878Z,1.9
2023-04-11T06:31:23.552Z,2.0
2023-04-11T06:32:24.271Z,1.7
2023-04-11T06:33:24.834Z,2.4
2023-04-11T06:34:25.462Z,1.7
2023-04-11T06:35:26.069Z,2.2
2023-04-11T06:36:26.673Z,1.9
2023-04-11T06:37:27.269Z,2.3
2023-04-11T06:38:27.870Z,2.3
2023-04-11T06:39:28.489Z,1.8
2023-04-11T06:40:29.118Z,2.1
2023-04-11T06:41:29.687Z,2.1
2023-04-11T06:42:30.290Z,2.9
2023-04-11T06:43:30.891Z,2.8
2023-04-11T06:44:31.739Z,2.7
2023-04-11T06:45:32.217Z,2.1
2023-04-11T06:46:32.886Z,2.5
2023-04-11T06:47:33.496Z,1.9
2023-04-11T06:48:34.043Z,2.5
2023-04-11T06:49:34.643Z,2.1
2023-04-11T06:50:35.262Z,2.2
2023-04-11T06:51:35.863Z,2.2
2023-04-11T06:52:36.463Z,1.8
2023-04-11T06:53:37.089Z,1.9
2023-04-11T06:54:37.718Z,1.8
2023-04-11T06:55:38.296Z,1.8
2023-04-11T06:56:38.898Z,1.8
2023-04-11T06:57:39.513Z,1.9
2023-04-11T06:58:40.116Z,1.7
2023-04-11T06:59:40.727Z,1.8
2023-04-11T07:00:41.310Z,1.4
2023-04-11T07:01:42.034Z,1.7
2023-04-11T07:02:42.772Z,1.5
2023-04-11T07:03:43.437Z,1.1
2023-04-11T07:04:44.275Z,1.5
2023-04-11T07:05:44.871Z,1.8
2023-04-11T07:06:45.463Z,1.3
2023-04-11T07:07:46.064Z,1.3
2023-04-11T07:08:46.663Z,1.4
2023-04-11T07:09:47.263Z,1.3
2023-04-11T07:10:47.886Z,1.7
2023-04-11T07:11:48.485Z,1.2
2023-04-11T07:12:49.082Z,1.3
2023-04-11T07:13:49.687Z,1.2
2023-04-11T07:14:50.283Z,0.9
2023-04-11T07:15:50.928Z,0.9
2023-04-11T07:16:51.494Z,0.8
2023-04-11T07:17:52.969Z,1.0
2023-04-11T07:18:53.644Z,1.3
2023-04-11T07:19:54.247Z,1.1
2023-04-11T07:20:55.063Z,0.9
2023-04-11T07:21:55.681Z,1.0
2023-04-11T07:22:56.286Z,1.1
2023-04-11T07:23:57.110Z,1.2
2023-04-11T07:24:57.526Z,1.0
2023-04-11T07:25:58.111Z,1.0
2023-04-11T07:26:58.726Z,0.9
2023-04-11T07:27:59.332Z,1.0
2023-04-11T07:28:59.986Z,1.0
2023-04-11T07:30:00.582Z,0.9
2023-04-11T07:31:01.206Z,1.2
2023-04-11T07:32:01.902Z,1.1
2023-04-11T07:33:02.525Z,0.7
2023-04-11T07:34:03.131Z,1.0
2023-04-11T07:35:03.701Z,0.9
2023-04-11T07:36:04.311Z,1.7
2023-04-11T07:37:04.900Z,1.3
2023-04-11T07:38:05.497Z,0.9
2023-04-11T07:39:06.095Z,0.8
2023-04-11T07:40:06.714Z,1.2
2023-04-11T07:41:07.319Z,1.1
2023-04-11T07:42:07.930Z,0.8
2023-04-11T07:43:08.512Z,1.3
2023-04-11T07:44:09.136Z,1.0
2023-04-11T07:45:09.734Z,0.7
2023-04-11T07:46:10.582Z,0.9
2023-04-11T07:47:11.232Z,1.0
2023-04-11T07:48:11.837Z,1.2
2023-04-11T07:49:12.460Z,1.4
2023-04-11T07:50:13.063Z,1.5
2023-04-11T07:51:13.677Z,1.1
2023-04-11T07:52:14.574Z,1.3
2023-04-11T07:53:15.169Z,1.2
2023-04-11T07:54:15.767Z,1.9
2023-04-11T07:55:16.411Z,1.7
2023-04-11T07:56:16.968Z,1.6
2023-04-11T07:57:17.568Z,1.6
2023-04-11T07:58:18.168Z,1.4
2023-04-11T07:59:18.786Z,2.0
2023-04-11T08:00:19.552Z,2.3
2023-04-11T08:01:20.052Z,1.6
2023-04-11T08:02:20.807Z,1.2
2023-04-11T08:03:21.525Z,2.1
2023-04-11T08:04:22.401Z,2.0
2023-04-11T08:05:23.202Z,2.1
2023-04-11T08:06:23.851Z,2.0
2023-04-11T08:07:24.448Z,2.0
2023-04-11T08:08:25.050Z,2.0
2023-04-11T08:09:25.658Z,1.9
2023-04-11T08:10:26.283Z,1.8
2023-04-11T08:11:26.887Z,2.1
2023-04-11T08:12:27.492Z,2.3
2023-04-11T08:13:28.109Z,1.8
2023-04-11T08:14:28.713Z,2.0
2023-04-11T08:15:29.314Z,2.7
2023-04-11T08:16:29.943Z,2.0
2023-04-11T08:17:30.586Z,1.9
2023-04-11T08:18:31.177Z,1.8
2023-04-11T08:19:31.780Z,2.0
2023-04-11T08:20:32.379Z,1.7
2023-04-11T08:21:32.978Z,2.3
2023-04-11T08:22:33.604Z,2.1
2023-04-11T08:23:34.207Z,2.0
2023-04-11T08:24:34.803Z,2.3
2023-04-11T08:25:35.405Z,2.3
2023-04-11T08:26:36.010Z,1.7
2023-04-11T08:27:36.629Z,2.0
2023-04-11T08:28:37.245Z,1.6
2023-04-11T08:29:37.850Z,1.9
2023-04-11T08:30:38.492Z,1.9
2023-04-11T08:31:39.038Z,1.6
2023-04-11T08:32:39.701Z,1.6
2023-04-11T08:33:40.329Z,2.1
2023-04-11T08:34:40.891Z,2.0
2023-04-11T08:35:41.542Z,1.8
2023-04-11T08:36:42.111Z,1.6
2023-04-11T08:37:42.736Z,1.5
2023-04-11T08:38:43.333Z,1.6
2023-04-11T08:39:43.957Z,2.1
2023-04-11T08:40:44.553Z,1.7
2023-04-11T08:41:45.153Z,2.0
2023-04-11T08:42:45.754Z,1.6
2023-04-11T08:43:46.354Z,1.8
2023-04-11T08:44:46.952Z,1.6
2023-04-11T08:45:47.606Z,1.6
2023-04-11T08:46:48.167Z,2.2
2023-04-11T08:47:48.800Z,1.9
2023-04-11T08:48:49.382Z,2.0
2023-04-11T08:49:50.003Z,1.4
2023-04-11T08:50:50.605Z,1.5
2023-04-11T08:51:51.200Z,2.1
2023-04-11T08:52:51.824Z,2.2
2023-04-11T08:53:52.423Z,2.0
2023-04-11T08:54:53.023Z,1.8
2023-04-11T08:55:53.622Z,2.0
2023-04-11T08:56:54.241Z,1.8
2023-04-11T08:57:54.843Z,1.2
2023-04-11T08:58:55.441Z,1.6
2023-04-11T08:59:56.038Z,1.6
2023-04-11T09:00:56.638Z,2.2
2023-04-11T09:01:57.351Z,1.3
2023-04-11T09:02:58.034Z,1.8
2023-04-11T09:03:58.897Z,1.6
2023-04-11T09:04:59.447Z,1.2
2023-04-11T09:06:00.033Z,1.7
2023-04-11T09:07:01.390Z,1.7
2023-04-11T09:08:02.050Z,1.6
2023-04-11T09:09:02.637Z,1.6
2023-04-11T09:10:03.245Z,1.8
2023-04-11T09:11:03.848Z,1.5
2023-04-11T09:12:04.447Z,1.3
2023-04-11T09:13:05.070Z,1.3
2023-04-11T09:14:05.675Z,1.2
2023-04-11T09:15:06.293Z,1.2
2023-04-11T09:16:06.942Z,1.6
2023-04-11T09:17:07.534Z,1.0
2023-04-11T09:18:08.198Z,1.2
2023-04-11T09:19:08.776Z,1.2
2023-04-11T09:20:09.378Z,2.2
2023-04-11T09:21:09.982Z,1.5
2023-04-11T09:22:10.582Z,1.4
2023-04-11T09:23:11.182Z,1.4
2023-04-11T09:24:11.786Z,1.9
2023-04-11T09:25:12.388Z,1.4
2023-04-11T09:26:12.980Z,1.6
2023-04-11T09:27:13.598Z,1.3
2023-04-11T09:28:14.207Z,1.5
2023-04-11T09:29:14.804Z,1.6
2023-04-11T09:30:15.409Z,1.3
2023-04-11T09:31:16.087Z,1.6
2023-04-11T09:32:16.638Z,1.7
2023-04-11T09:33:17.241Z,1.6
2023-04-11T09:34:17.842Z,1.5
2023-04-11T09:35:18.449Z,1.2
2023-04-11T09:36:19.050Z,1.3
2023-04-11T09:37:19.672Z,1.2
2023-04-11T09:38:20.269Z,1.6
2023-04-11T09:39:20.886Z,1.1
2023-04-11T09:40:21.473Z,1.0
2023-04-11T09:41:22.114Z,1.3
2023-04-11T09:42:22.730Z,1.3
2023-04-11T09:43:23.314Z,1.3
2023-04-11T09:44:23.910Z,1.1
2023-04-11T09:45:24.508Z,1.4
2023-04-11T09:46:25.128Z,1.1
2023-04-11T09:47:25.800Z,1.3
2023-04-11T09:48:39.527Z,1.2
2023-04-11T09:49:27.928Z,0.9
2023-04-11T09:50:28.529Z,1.1
2023-04-11T09:51:36.439Z,1.0
2023-04-11T09:52:30.726Z,1.4
2023-04-11T09:53:31.326Z,0.8
2023-04-11T09:54:31.986Z,1.2
2023-04-11T09:55:32.590Z,1.3
2023-04-11T09:56:33.187Z,1.4
2023-04-11T09:57:33.788Z,1.2
2023-04-11T09:58:34.394Z,1.3
2023-04-11T09:59:35.013Z,1.2
2023-04-11T10:00:35.618Z,1.1
2023-04-11T10:01:36.287Z,1.0
2023-04-11T10:02:36.947Z,1.0
2023-04-11T10:03:37.638Z,1.3
2023-04-11T10:04:38.288Z,1.1
2023-04-11T10:05:38.850Z,1.1
2023-04-11T10:06:39.464Z,0.8
2023-04-11T10:07:40.057Z,1.1
2023-04-11T10:08:40.677Z,0.9
2023-04-11T10:09:41.283Z,1.4
2023-04-11T10:10:41.877Z,1.3
2023-04-11T10:11:42.487Z,1.2
2023-04-11T10:12:43.088Z,1.4
2023-04-11T10:13:43.690Z,1.3
2023-04-11T10:14:44.308Z,1.8
2023-04-11T10:15:44.907Z,1.2
2023-04-11T10:16:45.555Z,1.4
2023-04-11T10:17:46.218Z,1.1
2023-04-11T10:18:46.771Z,1.2
2023-04-11T10:19:47.369Z,1.0
2023-04-11T10:20:47.972Z,1.0
2023-04-11T10:21:48.576Z,1.6
2023-04-11T10:22:49.178Z,1.2
2023-04-11T10:23:49.773Z,1.5
2023-04-11T10:24:50.379Z,1.7
2023-04-11T10:25:50.978Z,1.2
2023-04-11T10:26:51.610Z,1.1
2023-04-11T10:27:52.195Z,1.3
2023-04-11T10:28:52.793Z,1.3
2023-04-11T10:29:53.393Z,1.6
2023-04-11T10:30:54.011Z,1.3
2023-04-11T10:31:54.714Z,1.0
2023-04-11T10:32:55.442Z,1.5
2023-04-11T10:33:56.170Z,1.0
2023-04-11T10:34:56.864Z,1.2
2023-04-11T10:35:57.512Z,1.3
2023-04-11T10:36:58.102Z,1.4
2023-04-11T10:37:58.719Z,1.0
2023-04-11T10:38:59.296Z,1.4
2023-04-11T10:39:59.905Z,1.3
2023-04-11T10:41:00.511Z,1.7
2023-04-11T10:42:01.107Z,1.4
2023-04-11T10:43:01.707Z,1.1
2023-04-11T10:44:02.309Z,1.2
2023-04-11T10:45:02.912Z,1.1
2023-04-11T10:46:03.512Z,1.2
2023-04-11T10:47:04.147Z,1.6
2023-04-11T10:48:04.766Z,1.8
2023-04-11T10:49:05.350Z,1.4
2023-04-11T10:50:05.941Z,0.8
2023-04-11T10:51:06.565Z,1.3
2023-04-11T10:52:07.162Z,1.2
2023-04-11T10:53:07.794Z,1.0
2023-04-11T10:54:08.382Z,1.3
2023-04-11T10:55:08.985Z,1.3
2023-04-11T10:56:09.587Z,1.4
2023-04-11T10:57:10.188Z,1.1
2023-04-11T10:58:10.803Z,1.4
2023-04-11T10:59:11.394Z,1.2
2023-04-11T11:00:12.045Z,1.0
2023-04-11T11:01:21.270Z,1.3
2023-04-11T11:02:14.337Z,1.2
2023-04-11T11:03:15.148Z,1.5
2023-04-11T11:04:15.882Z,1.3
2023-04-11T11:05:16.364Z,1.1
2023-04-11T11:06:16.961Z,0.9
2023-04-11T11:07:17.633Z,1.2
2023-04-11T11:08:18.201Z,1.2
2023-04-11T11:09:18.784Z,1.0
2023-04-11T11:10:19.383Z,1.3
2023-04-11T11:11:20.001Z,1.0
2023-04-11T11:12:20.596Z,1.5
2023-04-11T11:13:21.196Z,1.4
2023-04-11T11:14:21.797Z,1.5
2023-04-11T11:15:22.402Z,1.5
2023-04-11T11:16:23.030Z,1.2
2023-04-11T11:17:23.710Z,1.1
2023-04-11T11:18:24.239Z,1.0
2023-04-11T11:19:24.859Z,1.2
2023-04-11T11:20:25.486Z,1.2
2023-04-11T11:21:27.735Z,1.4
2023-04-11T11:22:27.203Z,1.3
2023-04-11T11:23:27.823Z,1.6
2023-04-11T11:24:28.425Z,1.1
2023-04-11T11:25:29.027Z,1.3
2023-04-11T11:26:29.644Z,1.3
2023-04-11T11:27:30.244Z,1.1
2023-04-11T11:28:30.856Z,1.3
2023-04-11T11:29:31.459Z,1.3
2023-04-11T11:30:32.059Z,1.3
2023-04-11T11:31:32.670Z,1.2
2023-04-11T11:32:33.291Z,1.2
2023-04-11T11:33:33.886Z,1.2
2023-04-11T11:34:34.492Z,1.4
2023-04-11T11:35:35.090Z,1.6
2023-04-11T11:36:35.728Z,1.6
2023-04-11T11:37:36.291Z,1.4
2023-04-11T11:38:36.927Z,1.4
2023-04-11T11:39:37.525Z,1.8
2023-04-11T11:40:38.131Z,1.2
2023-04-11T11:41:38.731Z,1.1
2023-04-11T11:42:39.330Z,1.1
2023-04-11T11:43:39.933Z,1.6
2023-04-11T11:44:40.554Z,1.4
2023-04-11T11:45:41.197Z,1.4
2023-04-11T11:46:41.920Z,1.3
2023-04-11T11:47:42.644Z,1.5
2023-04-11T11:48:43.125Z,1.6
2023-04-11T11:49:43.744Z,1.2
2023-04-11T11:50:44.364Z,1.8
2023-04-11T11:51:44.972Z,1.4
2023-04-11T11:52:45.611Z,1.4
2023-04-11T11:53:46.188Z,1.8
2023-04-11T11:54:46.787Z,1.3
2023-04-11T11:55:47.476Z,2.0
2023-04-11T11:56:48.086Z,1.1
2023-04-11T11:57:48.681Z,1.7
2023-04-11T11:58:49.305Z,1.5
2023-04-11T11:59:49.898Z,1.7
2023-04-11T12:00:50.525Z,1.1
2023-04-11T12:01:51.142Z,2.1
2023-04-11T12:02:51.901Z,1.7
2023-04-11T12:03:52.794Z,2.0
2023-04-11T12:04:53.823Z,1.5
2023-04-11T12:05:54.133Z,1.5
2023-04-11T12:06:54.734Z,2.0
2023-04-11T12:07:55.344Z,1.6
2023-04-11T12:08:55.948Z,1.9
2023-04-11T12:09:56.570Z,1.5
2023-04-11T12:10:57.171Z,1.6
2023-04-11T12:11:57.782Z,2.0
2023-04-11T12:12:58.382Z,1.9
2023-04-11T12:13:59.298Z,1.6
2023-04-11T12:14:59.969Z,1.6
2023-04-11T12:16:00.636Z,1.4
2023-04-11T12:17:01.233Z,1.7
2023-04-11T12:18:01.904Z,1.5
2023-04-11T12:19:02.461Z,1.7
2023-04-11T12:20:03.085Z,1.8
2023-04-11T12:21:03.664Z,1.7
2023-04-11T12:22:04.264Z,2.0
2023-04-11T12:23:04.867Z,1.9
2023-04-11T12:24:05.472Z,1.5
2023-04-11T12:25:06.081Z,1.3
2023-04-11T12:26:06.694Z,1.4
2023-04-11T12:27:08.303Z,1.6
2023-04-11T12:28:08.898Z,1.3
2023-04-11T12:29:09.519Z,1.6
2023-04-11T12:30:10.123Z,1.5
2023-04-11T12:31:10.763Z,1.8
2023-04-11T12:32:11.313Z,1.6
2023-04-11T12:33:11.930Z,1.8
2023-04-11T12:34:12.521Z,1.5
2023-04-11T12:35:13.152Z,1.6
2023-04-11T12:36:13.727Z,2.0
2023-04-11T12:37:14.347Z,2.0
2023-04-11T12:38:17.510Z,1.8
2023-04-11T12:39:16.542Z,1.6
2023-04-11T12:40:17.151Z,2.1
2023-04-11T12:41:31.142Z,1.6
2023-04-11T12:42:23.777Z,1.7
2023-04-11T12:43:20.937Z,1.8
2023-04-11T12:44:21.544Z,1.7
2023-04-11T12:45:22.147Z,2.2
2023-04-11T12:46:22.788Z,1.7
2023-04-11T12:47:23.401Z,1.5
2023-04-11T12:48:23.986Z,1.6
2023-04-11T12:49:24.590Z,1.7
2023-04-11T12:50:25.192Z,1.6
2023-04-11T12:51:25.813Z,1.4
2023-04-11T12:52:26.412Z,1.4
2023-04-11T12:53:27.037Z,1.3
2023-04-11T12:54:27.635Z,1.1
2023-04-11T12:55:28.277Z,1.2
2023-04-11T12:56:28.874Z,1.3
2023-04-11T12:57:29.478Z,1.8
2023-04-11T12:58:30.076Z,1.5
2023-04-11T12:59:31.392Z,1.3
2023-04-11T13:00:31.296Z,1.2
2023-04-11T13:01:31.939Z,1.5
2023-04-11T13:02:41.552Z,1.5
2023-04-11T13:03:34.380Z,1.0
2023-04-11T13:04:34.846Z,1.5
2023-04-11T13:05:35.524Z,1.1
2023-04-11T13:06:36.115Z,1.4
2023-04-11T13:07:36.720Z,1.1
2023-04-11T13:08:37.317Z,1.2
2023-04-11T13:09:37.919Z,1.0
2023-04-11T13:10:38.532Z,1.3
2023-04-11T13:11:39.140Z,0.9
2023-04-11T13:12:39.762Z,1.0
2023-04-11T13:13:40.344Z,1.1
2023-04-11T13:14:40.943Z,1.3
2023-04-11T13:15:41.559Z,1.3
2023-04-11T13:16:42.304Z,1.3
2023-04-11T13:17:42.975Z,1.4
2023-04-11T13:18:43.579Z,1.5
2023-04-11T13:19:44.178Z,1.6
2023-04-11T13:20:44.776Z,1.4
2023-04-11T13:21:45.379Z,1.6
2023-04-11T13:22:45.981Z,1.6
2023-04-11T13:23:46.588Z,1.3
2023-04-11T13:24:47.216Z,1.5
2023-04-11T13:25:47.828Z,2.2
2023-04-11T13:26:48.443Z,1.4
2023-04-11T13:27:49.026Z,1.5
2023-04-11T13:28:49.638Z,1.4
2023-04-11T13:29:50.248Z,1.6
2023-04-11T13:30:50.846Z,1.1
2023-04-11T13:31:51.499Z,1.3
2023-04-11T13:32:52.073Z,1.1
2023-04-11T13:33:52.673Z,1.6
2023-04-11T13:34:53.269Z,1.1
2023-04-11T13:35:53.889Z,0.8
2023-04-11T13:36:54.546Z,1.3
2023-04-11T13:37:55.140Z,1.3
2023-04-11T13:38:55.930Z,1.7
2023-04-11T13:39:56.342Z,1.4
2023-04-11T13:40:56.944Z,1.1
2023-04-11T13:41:57.541Z,1.3
2023-04-11T13:42:58.158Z,1.2
2023-04-11T13:43:58.747Z,1.3
2023-04-11T13:44:59.381Z,1.1
2023-04-11T13:46:00.087Z,1.1
2023-04-11T13:47:00.606Z,1.2
2023-04-11T13:48:01.245Z,1.4
2023-04-11T13:49:01.813Z,1.1
2023-04-11T13:50:02.447Z,1.3
2023-04-11T13:51:03.053Z,1.3
2023-04-11T13:52:03.653Z,1.5
2023-04-11T13:53:04.260Z,1.0
2023-04-11T13:54:04.892Z,1.7
2023-04-11T13:55:05.511Z,1.2